avr
28

MX FIM – GP D’ITALIE : LES QUALIFICATIONS

MX1 – Pre-Qualifying Practice – Classification
Pos Nr Rider Nat. Fed. Bike Bestlaptime in lap Diff. First Diff. Prev. Tot. Laps Speed

1 377 Pourcel, Christophe FRA FFM Kawasaki 1:50.110 12 0:00.000 0:00.000 12 53.946
2 21 Paulin, Gautier FRA FFM Kawasaki 1:50.848 7 0:00.738 0:00.738 10 53.587
3 222 Cairoli, Antonio ITA FMI KTM 1:53.044 9 0:02.934 0:02.196 12 52.546
4 25 Desalle, Clement BEL FMB Suzuki 1:53.087 11 0:02.977 0:00.043 11 52.526
5 777 Bobryshev, Evgeny RUS MFR Honda 1:53.162 11 0:03.052 0:00.075 11 52.491
6 120 Soubeyras, Cedric FRA FFM Honda 1:53.267 11 0:03.157 0:00.105 11 52.442
7 9 de Dycker, Ken BEL FMB KTM 1:53.269 11 0:03.159 0:00.002 11 52.442
8 19 Philippaerts, David ITA FMI Yamaha 1:54.378 12 0:04.268 0:01.109 12 51.933
9 121 Boog, Xavier FRA FFM Kawasaki 1:54.407 12 0:04.297 0:00.029 12 51.92
10 24 Simpson, Shaun GBR ACU Yamaha 1:54.649 10 0:04.539 0:00.242 11 51.81
11 11 Pourcel, Sebastien FRA FFM Kawasaki 1:54.721 9 0:04.611 0:00.072 11 51.778
12 4 Leok, Tanel EST EMF Suzuki 1:54.869 11 0:04.759 0:00.148 13 51.711
13 39 Guarneri, Davide ITA FMI KTM 1:55.052 11 0:04.942 0:00.183 12 51.629
14 183 Frossard, Steven FRA FFM Yamaha 1:55.635 8 0:05.525 0:00.583 12 51.369
15 999 Goncalves, Rui POR FMP Honda 1:55.796 9 0:05.686 0:00.161 13 51.297
16 111 Ferris, Dean AUS MA Kawasaki 1:56.072 11 0:05.962 0:00.276 11 51.175
17 7 Barragan, Jonathan ESP RFME Honda 1:56.120 13 0:06.010 0:00.048 14 51.154
18 22 Strijbos, Kevin BEL FMB KTM 1:56.122 10 0:06.012 0:00.002 11 51.153
19 91 Karro, Matiss LAT LAMSF KTM 1:56.507 9 0:06.397 0:00.385 11 50.984
20 10 Boissiere, Anthony FRA FFM TM 1:58.235 9 0:08.125 0:01.728 11 50.239
21 32 Potisek, Milko FRA FFM Honda 1:58.403 10 0:08.293 0:00.168 11 50.168
22 199 Ciucci, Dawid ITA FMI KTM 1:58.794 7 0:08.684 0:00.391 9 50.003
23 36 Bonini, Matteo ITA FMI KTM 1:58.897 10 0:08.787 0:00.103 11 49.959
24 61 Brakke, Herjan NED KNMV Yamaha 1:59.192 10 0:09.082 0:00.295 12 49.836
25 42 Parker, Nathan GBR ACU KTM 2:00.599 8 0:10.489 0:01.407 10 49.254
26 171 Bertuzzo, Pier Filippo ITA FMI Honda 2:01.259 11 0:11.149 0:00.660 12 48.986
27 67 Tiainen, Santtu FIN SML Kawasaki 2:01.762 12 0:11.652 0:00.503 13 48.784
28 95 Justs, Augusts LAT LAMSF Honda 2:01.949 8 0:11.839 0:00.187 10 48.709
29 74 Steinbergs, Ivo LAT LAMSF Kawasaki 2:02.822 6 0:12.712 0:00.873 6 48.363
30 41 Smith, Alfie GBR ACU Yamaha 2:03.347 10 0:13.237 0:00.525 12 48.157
31 611 Cociu, Mihail MOL FMI KTM 2:05.330 9 0:15.220 0:01.983 11 47.395

MX1 – Qualifying Race – Classification
Pos Nr Rider Nat. Fed. Bike Time laps Diff. First Diff. Prev. Bestlaptime in lap Speed

1 21 Paulin, Gautier FRA FFM Kawasaki 25:09.523 13 0:00.000 0:00.000 1:53.883 7 52.159
2 377 Pourcel, Christophe FRA FFM Kawasaki 25:11.082 13 0:01.559 0:01.559 1:52.748 3 52.684
3 9 de Dycker, Ken BEL FMB KTM 25:43.134 13 0:33.611 0:32.052 1:54.913 5 51.691
4 777 Bobryshev, Evgeny RUS MFR Honda 25:48.453 13 0:38.930 0:05.319 1:54.937 4 51.68
5 11 Pourcel, Sebastien FRA FFM Kawasaki 25:53.696 13 0:44.173 0:05.243 1:56.116 6 51.156
6 19 Philippaerts, David ITA FMI Yamaha 25:57.850 13 0:48.327 0:04.154 1:56.795 6 50.858
7 121 Boog, Xavier FRA FFM Kawasaki 26:02.234 13 0:52.711 0:04.384 1:56.419 5 51.023
8 25 Desalle, Clement BEL FMB Suzuki 26:07.379 13 0:57.856 0:05.145 1:55.545 1 51.409
9 120 Soubeyras, Cedric FRA FFM Honda 26:11.304 13 1:01.781 0:03.925 1:57.130 5 50.713
10 24 Simpson, Shaun GBR ACU Yamaha 26:12.435 13 1:02.912 0:01.131 1:57.202 6 50.682
11 39 Guarneri, Davide ITA FMI KTM 26:12.587 13 1:03.064 0:00.152 1:57.660 9 50.484
12 7 Barragan, Jonathan ESP RFME Honda 26:14.219 13 1:04.696 0:01.632 1:58.723 3 50.032
13 222 Cairoli, Antonio ITA FMI KTM 26:16.371 13 1:06.848 0:02.152 1:55.817 5 51.288
14 22 Strijbos, Kevin BEL FMB KTM 26:20.683 13 1:11.160 0:04.312 1:58.197 5 50.255
15 4 Leok, Tanel EST EMF Suzuki 26:21.464 13 1:11.941 0:00.781 1:57.583 13 50.518
16 999 Goncalves, Rui POR FMP Honda 26:38.355 13 1:28.832 0:16.891 1:59.514 7 49.701
17 10 Boissiere, Anthony FRA FFM TM 26:40.506 13 1:30.983 0:02.151 1:59.647 7 49.646
18 32 Potisek, Milko FRA FFM Honda 26:44.910 13 1:35.387 0:04.404 1:59.516 5 49.7
19 111 Ferris, Dean AUS MA Kawasaki 26:45.700 13 1:36.177 0:00.790 1:59.380 5 49.757
20 91 Karro, Matiss LAT LAMSF KTM 27:08.314 13 1:58.791 0:22.614 1:59.580 3 49.674
21 36 Bonini, Matteo ITA FMI KTM 27:20.576 13 2:11.053 0:12.262 2:00.602 3 49.253
22 171 Bertuzzo, Pier Filippo ITA FMI Honda 25:25.328 12 1 lap 1 lap 2:02.236 4 48.595
23 41 Smith, Alfie GBR ACU Yamaha 25:30.767 12 1 lap 0:05.439 2:03.976 5 47.912
24 42 Parker, Nathan GBR ACU KTM 25:34.908 12 1 lap 0:04.141 2:02.821 7 48.363
25 95 Justs, Augusts LAT LAMSF Honda 25:39.491 12 1 lap 0:04.583 2:04.255 3 47.805
26 61 Brakke, Herjan NED KNMV Yamaha 25:49.513 12 1 lap 0:10.022 2:02.462 3 48.505
27 611 Cociu, Mihail MOL FMI KTM 26:06.484 12 1 lap 0:16.971 2:05.815 5 47.212
28 199 Ciucci, Dawid ITA FMI KTM 26:09.115 12 1 lap 0:02.631 2:06.482 3 46.963
29 67 Tiainen, Santtu FIN SML Kawasaki 17:04.237 8 5 laps 4 laps 2:03.691 3 48.023
30 183 Frossard, Steven FRA FFM Yamaha 10:21.291 5 8 laps 3 laps 1:59.131 4 49.861

MX2 – Pre-Qualifying Practice – Classification
Pos Nr Rider Nat. Fed. Bike Bestlaptime in lap Diff. First Diff. Prev. Tot. Laps Speed

1 84 Herlings, Jeffrey NED KNMV KTM 1:54.983 11 0:00.000 0:00.000 12 51.66
2 34 Roelants, Joel BEL FMB Kawasaki 1:55.167 11 0:00.184 0:00.184 11 51.577
3 100 Searle, Tommy GBR ACU Kawasaki 1:55.331 11 0:00.348 0:00.164 11 51.504
4 23 Charlier, Christophe FRA FFM Yamaha 1:56.354 10 0:01.371 0:01.023 11 51.051
5 45 Nicholls, Jake GBR ACU KTM 1:56.497 7 0:01.514 0:00.143 11 50.988
6 89 van Horebeek, Jeremy BEL FMB KTM 1:56.895 6 0:01.912 0:00.398 11 50.815
7 911 Tixier, Jordi FRA FFM KTM 1:56.982 11 0:01.999 0:00.087 11 50.777
8 170 Leib, Michael USA AMA Yamaha 1:57.190 8 0:02.207 0:00.208 11 50.687
9 22 Ferrandis, Dylan FRA FFM Kawasaki 1:57.866 9 0:02.883 0:00.676 9 50.396
10 33 Lieber, Julien BEL FMB KTM 1:57.964 7 0:02.981 0:00.098 12 50.354
11 77 Lupino, Alessandro ITA FMI Husqvarna 1:58.019 8 0:03.036 0:00.055 12 50.331
12 6 Anstie, Max GBR AMA Honda 1:58.487 8 0:03.504 0:00.468 14 50.132
13 152 Petrov, Petar BUL BMF Suzuki 1:58.535 12 0:03.552 0:00.048 12 50.112
14 249 Larsen, Nikolaj DEN DMU Suzuki 1:58.821 9 0:03.838 0:00.286 11 49.991
15 37 Teillet, Valentin FRA FFM Kawasaki 1:59.095 9 0:04.112 0:00.274 12 49.876
16 44 Banks-Browne, Elliott GBR ACU KTM 1:59.376 5 0:04.393 0:00.281 10 49.759
17 66 Tonkov, Alexander RUS MFR Honda 1:59.462 10 0:04.479 0:00.086 12 49.723
18 151 Kullas, Harri FIN SML Suzuki 2:00.094 9 0:05.111 0:00.632 13 49.461
19 128 Monticelli, Ivo ITA FMI Suzuki 2:00.497 7 0:05.514 0:00.403 13 49.296
20 173 Guillod, Valentin SUI FMS KTM 2:00.874 10 0:05.891 0:00.377 12 49.142
21 141 Cervellin, Andrea ITA FMI TM 2:01.348 7 0:06.365 0:00.474 11 48.95
22 119 Pocock, Mel GBR ACU Yamaha 2:01.448 5 0:06.465 0:00.100 11 48.91
23 123 Bernardini, Samuele ITA FMI KTM 2:02.031 7 0:07.048 0:00.583 10 48.676
24 51 Getteman, Jens BEL FMB Suzuki 2:02.202 9 0:07.219 0:00.171 11 48.608
25 202 Larrieu, Loic FRA FFM Husqvarna 2:02.255 10 0:07.272 0:00.053 12 48.587
26 264 Bengtsson, Filip SWE SVEMO KTM 2:02.268 10 0:07.285 0:00.013 12 48.582
27 195 Justs, Roberts LAT LAMSF Honda 2:02.285 8 0:07.302 0:00.017 11 48.575
28 35 Rauchenecker, Pascal AUT OeAMTC KTM 2:02.411 9 0:07.428 0:00.126 13 48.525
29 262 Del Segato, Giacomo ITA FMI KTM 2:02.464 9 0:07.481 0:00.053 9 48.504
30 17 Butron, Jose ESP RFME KTM 2:02.556 5 0:07.573 0:00.092 12 48.468
31 310 Mancuso, Antonio ITA FMI Honda 2:03.242 11 0:08.259 0:00.686 13 48.198
32 112 Heibye, Even NOR NMF KTM 2:03.508 8 0:08.525 0:00.266 12 48.094
33 837 Battig, Alessandro ITA FMI Yamaha 2:03.534 9 0:08.551 0:00.026 11 48.084
34 922 Fors, Kevin BEL FMB Yamaha 2:03.663 11 0:08.680 0:00.129 11 48.034
35 101 Zeni, Samuel ITA FMI Yamaha 2:04.128 6 0:09.145 0:00.465 12 47.854
36 600 Ivanovs, Davis LAT LAMSF Kawasaki 2:04.137 10 0:09.154 0:00.009 11 47.85
37 461 Febvre, Romain FRA FFM KTM 2:04.755 5 0:09.772 0:00.618 10 47.613
38 300 Golovkin, Viacheslav RUS LAMSF Kawasaki 2:05.574 5 0:10.591 0:00.819 11 47.303
39 161 Brevers, Ludovic BEL FMB Yamaha 2:06.723 6 0:11.740 0:01.149 9 46.874
40 21 Amadio, Leonardo ITA FMI Honda 2:08.229 5 0:13.246 0:01.506 11 46.323

MX2 – Qualifying Race – Classification
Pos Nr Rider Nat. Fed. Bike Time laps Diff. First Diff. Prev. Bestlaptime in lap Speed

1 100 Searle, Tommy GBR ACU Kawasaki 25:35.454 13 0:00.000 0:00.000 1:55.367 11 51.488
2 34 Roelants, Joel BEL FMB Kawasaki 25:37.530 13 0:02.076 0:02.076 1:55.740 10 51.322
3 84 Herlings, Jeffrey NED KNMV KTM 25:38.561 13 0:03.107 0:01.031 1:55.599 11 51.385
4 89 van Horebeek, Jeremy BEL FMB KTM 26:01.370 13 0:25.916 0:22.809 1:57.107 5 50.723
5 45 Nicholls, Jake GBR ACU KTM 26:04.331 13 0:28.877 0:02.961 1:57.343 1 50.621
6 23 Charlier, Christophe FRA FFM Yamaha 26:11.776 13 0:36.322 0:07.445 1:57.595 10 50.512
7 170 Leib, Michael USA AMA Yamaha 26:14.026 13 0:38.572 0:02.250 1:56.703 9 50.898
8 77 Lupino, Alessandro ITA FMI Husqvarna 26:18.509 13 0:43.055 0:04.483 1:58.760 5 50.017
9 22 Ferrandis, Dylan FRA FFM Kawasaki 26:20.157 13 0:44.703 0:01.648 1:58.050 7 50.318
10 66 Tonkov, Alexander RUS MFR Honda 26:24.635 13 0:49.181 0:04.478 1:59.012 7 49.911
11 33 Lieber, Julien BEL FMB KTM 26:26.440 13 0:50.986 0:01.805 1:58.780 8 50.008
12 119 Pocock, Mel GBR ACU Yamaha 26:33.821 13 0:58.367 0:07.381 1:59.489 5 49.712
13 911 Tixier, Jordi FRA FFM KTM 26:34.288 13 0:58.834 0:00.467 1:58.910 9 49.954
14 151 Kullas, Harri FIN SML Suzuki 26:37.107 13 1:01.653 0:02.819 1:58.764 7 50.015
15 249 Larsen, Nikolaj DEN DMU Suzuki 26:38.966 13 1:03.512 0:01.859 1:59.487 5 49.713
16 17 Butron, Jose ESP RFME KTM 26:47.443 13 1:11.989 0:08.477 2:00.479 7 49.303
17 152 Petrov, Petar BUL BMF Suzuki 26:50.748 13 1:15.294 0:03.305 2:00.054 7 49.478
18 128 Monticelli, Ivo ITA FMI Suzuki 27:05.887 13 1:30.433 0:15.139 2:01.087 7 49.056
19 173 Guillod, Valentin SUI FMS KTM 27:07.338 13 1:31.884 0:01.451 2:01.874 5 48.739
20 141 Cervellin, Andrea ITA FMI TM 27:23.718 13 1:48.264 0:16.380 2:01.305 9 48.967
21 461 Febvre, Romain FRA FFM KTM 27:27.486 13 1:52.032 0:03.768 2:02.369 7 48.542
22 112 Heibye, Even NOR NMF KTM 27:30.159 13 1:54.705 0:02.673 2:03.344 3 48.158
23 101 Zeni, Samuel ITA FMI Yamaha 27:31.666 13 1:56.212 0:01.507 2:03.038 7 48.278
24 195 Justs, Roberts LAT LAMSF Honda 27:33.157 13 1:57.703 0:01.491 2:03.965 6 47.917
25 123 Bernardini, Samuele ITA FMI KTM 27:35.262 13 1:59.808 0:02.105 2:02.812 10 48.367
26 922 Fors, Kevin BEL FMB Yamaha 27:35.593 13 2:00.139 0:00.331 2:02.186 6 48.614
27 264 Bengtsson, Filip SWE SVEMO KTM 27:47.486 13 2:12.032 0:11.893 2:03.941 4 47.926
28 300 Golovkin, Viacheslav RUS LAMSF Kawasaki 25:51.292 12 1 lap 1 lap 2:03.936 6 47.928
29 600 Ivanovs, Davis LAT LAMSF Kawasaki 25:53.446 12 1 lap 0:02.154 2:04.719 5 47.627
30 51 Getteman, Jens BEL FMB Suzuki 26:02.635 12 1 lap 0:09.189 2:04.198 5 47.827
31 6 Anstie, Max GBR AMA Honda 26:23.208 12 1 lap 0:20.573 2:02.562 2 48.465
32 21 Amadio, Leonardo ITA FMI Honda 26:30.469 12 1 lap 0:07.261 2:06.714 3 46.877
33 35 Rauchenecker, Pascal AUT OeAMTC KTM 26:37.644 12 1 lap 0:07.175 2:01.280 7 48.978
34 837 Battig, Alessandro ITA FMI Yamaha 27:14.070 12 1 lap 0:36.426 2:04.671 7 47.645
35 161 Brevers, Ludovic BEL FMB Yamaha 27:20.568 12 1 lap 0:06.498 2:06.893 4 46.811
36 310 Mancuso, Antonio ITA FMI Honda 26:42.840 11 2 laps 1 lap 2:04.170 5 47.838
37 202 Larrieu, Loic FRA FFM Husqvarna 17:08.452 8 5 laps 3 laps 2:03.191 8 48.218
38 37 Teillet, Valentin FRA FFM Kawasaki 7:23.331 1 12 laps 7 laps 7:06.959 1 13.912
39 44 Banks-Browne, Elliott GBR ACU KTM 0:15.680 0 13 laps 1 lap 0:00.000 0 0

EMX 125 – Time Practice – Classification
Pos Nr Rider Nat. Fed. Bike Bestlaptime in lap Diff. First Diff. Prev. Tot. Laps Speed

1 243 Gajser, Tim SLO AMZS KTM 2:02.179 8 0:00.000 0:00.000 11 48.617
2 141 Jonass, Pauls LAT LAMSF KTM 2:04.569 11 0:02.390 0:02.390 11 47.684
3 997 Righi, Riccardo ITA FMI KTM 2:05.271 12 0:03.092 0:00.702 13 47.417
4 999 Bonini, Davide ITA FMI KTM 2:05.685 6 0:03.506 0:00.414 12 47.261
5 112 Vlaanderen, Calvin NED KNMV KTM 2:06.280 11 0:04.101 0:00.595 12 47.038
6 101 Kovar, Vaclav CZE ACCR KTM 2:06.439 13 0:04.260 0:00.159 13 46.979
7 110 Verhaeghe, Alexis FRA FFM Kawasaki 2:06.487 6 0:04.308 0:00.048 10 46.961
8 223 De Pietri, Tommaso ITA FMI Suzuki 2:06.626 12 0:04.447 0:00.139 12 46.91
9 15 Hofman, Styn BEL FMB KTM 2:06.723 7 0:04.544 0:00.097 10 46.874
10 29 Jacobi, Henry GER DMSB KTM 2:06.887 9 0:04.708 0:00.164 12 46.813
11 81 Larranaga, Iker ESP RFME Suzuki 2:07.009 8 0:04.830 0:00.122 13 46.768
12 100 Klingshelm, Magne NOR NMF KTM 2:07.440 10 0:05.261 0:00.431 12 46.61
13 114 Della Mora, Alessio ITA FMI KTM 2:07.581 10 0:05.402 0:00.141 12 46.559
14 79 Corneth, Jaap NED KNMV KTM 2:07.638 10 0:05.459 0:00.057 11 46.538
15 722 Mantovani, Michael ITA FMI KTM 2:08.351 12 0:06.172 0:00.713 12 46.279
16 377 Krc, Martin CZE ACCR KTM 2:08.686 7 0:06.507 0:00.335 10 46.159
17 20 Facchetti, Emanuele ITA FMI KTM 2:08.759 8 0:06.580 0:00.073 12 46.133
18 274 Lundgren, Anton SWE SVEMO KTM 2:08.764 7 0:06.585 0:00.005 11 46.131
19 200 Dunn, James GBR ACU KTM 2:08.943 7 0:06.764 0:00.179 13 46.067
20 278 Vermijl, Thomas BEL FMB KTM 2:09.087 10 0:06.908 0:00.144 12 46.015
21 77 Jasikonis, Arminas LTU LMSF KTM 2:09.230 5 0:07.051 0:00.143 10 45.965
22 25 Vondrasek, Jan CZE ACCR KTM 2:09.421 9 0:07.242 0:00.191 10 45.897
23 8 Deghi, Gianluca ITA FMI KTM 2:09.697 9 0:07.518 0:00.276 11 45.799
24 148 Eccles, Michael GBR ACU KTM 2:09.720 8 0:07.541 0:00.023 8 45.791
25 22 Frosali, Leonardo ITA FMI Yamaha 2:10.069 8 0:07.890 0:00.349 11 45.668
26 183 Renkens, Nathan BEL FMB Yamaha 2:10.231 10 0:08.052 0:00.162 12 45.611
27 117 Falden, Joachim FRA FFM KTM 2:10.553 6 0:08.374 0:00.322 9 45.499
28 595 Toccaceli, Bryan SMR FSM Suzuki 2:10.600 7 0:08.421 0:00.047 10 45.482
29 64 Damiaens, Dietger BEL FMB KTM 2:10.672 7 0:08.493 0:00.072 12 45.457
30 251 Guriev, Artem RUS MFR KTM 2:10.799 6 0:08.620 0:00.127 9 45.413
31 372 Baranov, Ivan RUS MFR KTM 2:10.800 8 0:08.621 0:00.001 11 45.413
32 191 Podmol, Filip CZE ACCR KTM 2:10.844 8 0:08.665 0:00.044 12 45.398
33 773 Do, Thomas FRA FFM KTM 2:11.318 11 0:09.139 0:00.474 11 45.234
34 16 Adams, Nicholas GBR ACU KTM 2:11.642 9 0:09.463 0:00.324 11 45.122
35 118 van Mechelen, Joel NED KNMV KTM 2:11.912 5 0:09.733 0:00.270 9 45.03
36 152 Marini, Thomas SMR FSM Suzuki 2:12.255 10 0:10.076 0:00.343 10 44.913
37 156 van Nobelen, Jordi NED KNMV KTM 2:12.474 7 0:10.295 0:00.219 10 44.839
38 777 Manucci, Jean Pierre FRA FFM Yamaha 2:13.210 10 0:11.031 0:00.736 11 44.591
39 521 Ramos, Theo FRA FFM KTM 2:13.303 9 0:11.124 0:00.093 10 44.56
40 123 Christoffersen, Lasse NOR NMF Yamaha 2:13.778 9 0:11.599 0:00.475 12 44.402
41 103 Tamagnini, Nicolo SMR FSM KTM 2:14.278 5 0:12.099 0:00.500 7 44.237
42 160 Kritikos, Manolis GRE ELPA Yamaha 2:14.559 4 0:12.380 0:00.281 11 44.144
43 11 Müller, Maximilian GER DMSB KTM 2:24.635 6 0:22.456 0:10.076 8 41.069
44 99 Zaragoza Beltran, Jorge ESP RFME Suzuki 2:52.690 1 0:50.511 0:28.055 1 34.397

A voir aussi :

Le commentaires sont fermés.